createdAt,value
2022-09-25T00:01:19.920Z,4.95
2022-09-25T00:03:49.460Z,5.55
2022-09-25T00:06:20.766Z,5.70
2022-09-25T00:08:49.442Z,5.28
2022-09-25T00:11:19.895Z,5.93
2022-09-25T00:13:48.637Z,6.13
2022-09-25T00:16:21.518Z,5.33
2022-09-25T00:19:08.672Z,5.90
2022-09-25T00:21:38.120Z,5.45
2022-09-25T00:24:09.668Z,5.85
2022-09-25T00:26:41.765Z,5.07
2022-09-25T00:29:16.424Z,4.93
2022-09-25T00:31:44.358Z,5.93
2022-09-25T00:34:12.415Z,5.78
2022-09-25T00:36:40.125Z,5.93
2022-09-25T00:39:07.711Z,5.28
2022-09-25T00:41:35.603Z,4.80
2022-09-25T00:44:42.132Z,5.63
2022-09-25T00:47:13.592Z,5.30
2022-09-25T00:49:41.769Z,6.60
2022-09-25T00:52:15.779Z,6.63
2022-09-25T00:54:55.853Z,7.22
2022-09-25T00:57:27.738Z,7.60
2022-09-25T01:00:11.590Z,6.63
2022-09-25T01:02:53.447Z,6.43
2022-09-25T01:05:30.980Z,6.18
2022-09-25T01:08:02.045Z,6.13
2022-09-25T01:10:30.766Z,6.55
2022-09-25T01:13:00.223Z,5.30
2022-09-25T01:18:48.473Z,5.60
2022-09-25T01:21:18.728Z,5.68
2022-09-25T01:23:49.239Z,5.40
2022-09-25T01:26:22.499Z,6.03
2022-09-25T01:28:59.642Z,5.45
2022-09-25T01:31:42.415Z,5.72
2022-09-25T01:34:21.368Z,5.85
2022-09-25T01:37:30.055Z,4.78
2022-09-25T01:40:38.942Z,5.82
2022-09-25T01:43:21.490Z,5.40
2022-09-25T01:45:54.195Z,4.65
2022-09-25T01:48:27.686Z,4.93
2022-09-25T01:51:03.881Z,4.38
2022-09-25T01:53:47.067Z,4.40
2022-09-25T01:57:06.494Z,4.40
2022-09-25T01:59:47.293Z,4.13
2022-09-25T02:02:21.347Z,4.38
2022-09-25T02:05:07.884Z,4.50
2022-09-25T02:07:42.237Z,4.15
2022-09-25T02:10:27.713Z,4.40
2022-09-25T02:13:10.965Z,4.63
2022-09-25T02:15:52.245Z,4.28
2022-09-25T02:18:40.327Z,4.57
2022-09-25T02:21:25.496Z,4.32
2022-09-25T02:24:06.544Z,3.95
2022-09-25T02:26:35.693Z,4.15
2022-09-25T02:29:03.833Z,4.45
2022-09-25T02:31:43.450Z,4.20
2022-09-25T02:34:14.978Z,5.15
2022-09-25T02:36:44.855Z,4.00
2022-09-25T02:39:18.813Z,3.80
2022-09-25T02:42:07.922Z,4.53
2022-09-25T02:45:35.953Z,4.50
2022-09-25T02:48:23.069Z,4.70
2022-09-25T02:51:11.413Z,4.95
2022-09-25T02:54:08.649Z,4.55
2022-09-25T02:57:06.429Z,4.63
2022-09-25T02:59:43.741Z,4.43
2022-09-25T03:02:13.561Z,4.35
2022-09-25T03:04:42.413Z,5.07
2022-09-25T03:07:10.225Z,5.53
2022-09-25T03:09:42.282Z,4.43
2022-09-25T03:12:10.067Z,5.20
2022-09-25T03:14:37.527Z,4.93
2022-09-25T03:17:07.779Z,5.45
2022-09-25T03:19:35.442Z,4.80
2022-09-25T03:22:03.832Z,4.65
2022-09-25T03:24:32.114Z,4.45
2022-09-25T03:26:59.571Z,5.18
2022-09-25T03:29:27.368Z,4.50
2022-09-25T03:31:55.522Z,3.47
2022-09-25T03:34:23.115Z,4.40
2022-09-25T03:36:50.545Z,4.43
2022-09-25T03:39:18.281Z,4.65
2022-09-25T03:41:46.439Z,5.07
2022-09-25T03:44:14.043Z,4.93
2022-09-25T03:46:41.780Z,5.88
2022-09-25T03:49:10.844Z,5.53
2022-09-25T03:51:39.037Z,5.28
2022-09-25T03:54:06.952Z,4.80
2022-09-25T03:56:34.611Z,5.53
2022-09-25T03:59:02.122Z,6.18
2022-09-25T04:01:30.180Z,7.47
2022-09-25T04:03:58.164Z,6.60
2022-09-25T04:06:27.139Z,6.63
2022-09-25T04:08:55.340Z,5.10
2022-09-25T04:11:24.579Z,5.38
2022-09-25T04:13:52.836Z,5.70
2022-09-25T04:16:21.414Z,4.60
2022-09-25T04:18:50.701Z,4.35
2022-09-25T04:21:18.221Z,4.50
2022-09-25T04:24:06.006Z,4.82
2022-09-25T04:26:34.633Z,4.15
2022-09-25T04:29:03.698Z,6.95
2022-09-25T04:31:32.661Z,5.95
2022-09-25T04:34:02.215Z,4.63
2022-09-25T04:36:29.935Z,5.30
2022-09-25T04:38:57.727Z,5.47
2022-09-25T04:41:25.253Z,5.10
2022-09-25T04:43:52.982Z,5.20
2022-09-25T04:46:22.654Z,5.50
2022-09-25T04:48:50.761Z,5.43
2022-09-25T04:51:18.667Z,5.35
2022-09-25T04:53:46.829Z,6.53
2022-09-25T04:56:16.281Z,5.28
2022-09-25T04:58:50.251Z,4.75
2022-09-25T05:01:20.540Z,4.93
2022-09-25T05:03:53.724Z,5.07
2022-09-25T05:06:23.316Z,4.72
2022-09-25T05:08:51.147Z,4.35
2022-09-25T05:11:19.081Z,4.97
2022-09-25T05:13:51.796Z,4.90
2022-09-25T05:16:20.475Z,4.70
2022-09-25T05:18:48.154Z,5.33
2022-09-25T05:21:15.633Z,4.60
2022-09-25T05:23:43.843Z,5.30
2022-09-25T05:26:11.539Z,4.75
2022-09-25T05:28:39.579Z,4.45
2022-09-25T05:31:08.280Z,5.22
2022-09-25T05:33:36.025Z,4.07
2022-09-25T05:36:08.046Z,4.75
2022-09-25T05:38:39.101Z,4.22
2022-09-25T05:41:11.064Z,5.40
2022-09-25T05:43:42.997Z,4.18
2022-09-25T05:46:11.776Z,5.40
2022-09-25T05:48:40.029Z,4.63
2022-09-25T05:51:07.938Z,4.57
2022-09-25T05:53:35.435Z,3.80
2022-09-25T05:56:05.540Z,4.70
2022-09-25T05:58:34.946Z,4.80
2022-09-25T06:01:04.831Z,6.05
2022-09-25T06:03:32.848Z,5.95
2022-09-25T06:06:01.474Z,6.05
2022-09-25T06:08:33.021Z,6.53
2022-09-25T06:11:02.474Z,6.45
2022-09-25T06:16:02.317Z,5.40
2022-09-25T06:18:30.271Z,6.50
2022-09-25T06:21:05.095Z,5.43
2022-09-25T06:23:33.309Z,5.18
2022-09-25T06:26:03.812Z,5.35
2022-09-25T06:28:32.179Z,4.88
2022-09-25T06:31:06.006Z,5.50
2022-09-25T06:33:33.668Z,5.80
2022-09-25T06:36:02.265Z,5.93
2022-09-25T06:38:29.903Z,5.22
2022-09-25T06:41:00.617Z,5.90
2022-09-25T06:43:29.324Z,5.15
2022-09-25T06:46:02.574Z,5.75
2022-09-25T06:48:31.012Z,5.35
2022-09-25T06:51:00.764Z,6.05
2022-09-25T06:53:28.367Z,5.82
2022-09-25T06:56:02.858Z,6.00
2022-09-25T06:58:30.858Z,7.18
2022-09-25T07:00:59.238Z,6.18
2022-09-25T07:03:45.186Z,5.45
2022-09-25T07:06:15.318Z,6.15
2022-09-25T07:08:48.137Z,6.25
2022-09-25T07:11:22.509Z,6.13
2022-09-25T07:13:57.313Z,7.00
2022-09-25T07:16:30.066Z,6.32
2022-09-25T07:19:00.770Z,6.97
2022-09-25T07:21:30.791Z,6.22
2022-09-25T07:23:59.019Z,5.75
2022-09-25T07:26:33.933Z,7.22
2022-09-25T07:29:06.562Z,5.93
2022-09-25T07:31:37.936Z,4.78
2022-09-25T07:34:09.629Z,4.25
2022-09-25T07:36:38.800Z,4.30
2022-09-25T07:39:07.542Z,2.33
2022-09-25T07:41:37.155Z,1.80
2022-09-25T07:44:27.915Z,3.30
2022-09-25T07:46:55.165Z,1.92
2022-09-25T07:49:22.708Z,3.20
2022-09-25T07:51:50.202Z,2.30
2022-09-25T07:54:18.090Z,1.73
2022-09-25T07:56:45.568Z,3.78
2022-09-25T07:59:13.274Z,2.13
2022-09-25T08:01:44.699Z,2.30
2022-09-25T08:04:14.018Z,2.30
2022-09-25T08:06:41.816Z,2.78
2022-09-25T08:09:12.179Z,2.10
2022-09-25T08:11:39.921Z,1.80
2022-09-25T08:14:07.849Z,1.88
2022-09-25T08:16:35.532Z,1.83
2022-09-25T08:19:03.874Z,2.97
2022-09-25T08:21:31.671Z,4.25
2022-09-25T08:23:59.165Z,5.20
2022-09-25T08:26:28.145Z,5.57
2022-09-25T08:28:56.922Z,4.55
2022-09-25T08:31:24.530Z,4.60
2022-09-25T08:33:52.151Z,5.32
2022-09-25T08:36:21.309Z,4.13
2022-09-25T08:38:48.879Z,4.13
2022-09-25T08:41:51.056Z,4.70
2022-09-25T08:44:36.807Z,3.85
2022-09-25T08:47:37.606Z,3.17
2022-09-25T08:50:09.229Z,2.90
2022-09-25T08:52:41.239Z,4.18
2022-09-25T08:56:01.683Z,3.97
2022-09-25T08:58:34.006Z,3.80
2022-09-25T09:01:06.653Z,2.25
2022-09-25T09:04:05.599Z,2.58
2022-09-25T09:06:37.339Z,2.72
2022-09-25T09:09:29.906Z,1.90
2022-09-25T09:12:25.747Z,2.38
2022-09-25T09:15:06.857Z,3.22
2022-09-25T09:17:42.535Z,2.08
2022-09-25T09:20:30.013Z,1.75
2022-09-25T09:22:58.927Z,1.35
2022-09-25T09:25:40.572Z,2.28
2022-09-25T09:28:54.516Z,3.05
2022-09-25T09:31:46.910Z,1.13
2022-09-25T09:35:04.875Z,2.35
2022-09-25T09:37:50.643Z,2.35
2022-09-25T09:40:43.947Z,1.80
2022-09-25T09:43:43.179Z,1.80
2022-09-25T09:46:41.973Z,1.45
2022-09-25T09:49:51.140Z,1.52
2022-09-25T09:52:34.305Z,2.42
2022-09-25T09:55:23.119Z,2.55
2022-09-25T09:57:55.159Z,2.95
2022-09-25T10:00:24.440Z,1.90
2022-09-25T10:03:17.318Z,1.08
2022-09-25T10:05:57.101Z,1.65
2022-09-25T10:08:25.418Z,1.25
2022-09-25T10:10:55.029Z,1.13
2022-09-25T10:13:38.283Z,1.90
2022-09-25T10:16:11.460Z,1.40
2022-09-25T10:18:48.453Z,1.67
2022-09-25T10:21:25.498Z,1.55
2022-09-25T10:23:56.113Z,1.77
2022-09-25T10:26:38.977Z,1.42
2022-09-25T10:29:23.079Z,1.17
2022-09-25T10:32:00.341Z,0.90
2022-09-25T10:34:29.741Z,1.13
2022-09-25T10:36:58.305Z,1.20
2022-09-25T10:39:49.170Z,1.60
2022-09-25T10:42:41.569Z,1.27
2022-09-25T10:45:36.065Z,1.05
2022-09-25T10:48:56.324Z,1.25
2022-09-25T10:51:25.369Z,1.35
2022-09-25T10:56:42.465Z,3.20
2022-09-25T10:59:19.758Z,3.15
2022-09-25T11:01:51.736Z,2.97
2022-09-25T11:04:32.069Z,2.15
2022-09-25T11:07:07.903Z,1.23
2022-09-25T11:09:43.775Z,2.00
2022-09-25T11:12:38.740Z,3.08
2022-09-25T11:15:17.499Z,2.60
2022-09-25T11:17:46.958Z,3.53
2022-09-25T11:20:27.847Z,2.70
2022-09-25T11:23:29.341Z,2.28
2022-09-25T11:26:14.236Z,2.17
2022-09-25T11:29:01.770Z,1.70
2022-09-25T11:31:42.777Z,1.83
2022-09-25T11:34:58.307Z,2.72
2022-09-25T11:37:58.514Z,2.22
2022-09-25T11:41:16.070Z,1.70
2022-09-25T11:44:13.011Z,2.50
2022-09-25T11:46:54.261Z,2.15
2022-09-25T11:49:28.590Z,2.20
2022-09-25T11:52:42.732Z,2.75
2022-09-25T11:55:52.397Z,3.47
2022-09-25T11:58:33.542Z,4.15
2022-09-25T12:01:25.931Z,2.78
2022-09-25T12:04:17.757Z,3.08
2022-09-25T12:07:15.838Z,2.80
2022-09-25T12:10:27.235Z,2.38
2022-09-25T12:13:04.347Z,3.22
2022-09-25T12:16:14.457Z,3.35
2022-09-25T12:19:10.810Z,2.83
2022-09-25T12:22:11.497Z,3.10
2022-09-25T12:24:44.601Z,3.10
2022-09-25T12:27:33.072Z,2.22
2022-09-25T12:30:21.353Z,3.33
2022-09-25T12:33:04.336Z,2.75
2022-09-25T12:35:58.102Z,1.88
2022-09-25T12:38:48.516Z,2.65
2022-09-25T12:41:53.156Z,3.50
2022-09-25T12:44:38.145Z,3.17
2022-09-25T12:47:33.222Z,3.47
2022-09-25T12:50:29.599Z,3.20
2022-09-25T12:53:17.101Z,4.47
2022-09-25T12:55:53.137Z,3.17
2022-09-25T12:58:57.548Z,2.90
2022-09-25T13:01:32.311Z,2.97
2022-09-25T13:04:37.840Z,3.55
2022-09-25T13:07:33.581Z,3.72
2022-09-25T13:10:13.615Z,2.85
2022-09-25T13:12:41.380Z,2.45
2022-09-25T13:15:23.275Z,3.83
2022-09-25T13:17:51.125Z,3.63
2022-09-25T13:20:31.344Z,3.13
2022-09-25T13:23:37.192Z,3.42
2022-09-25T13:26:18.497Z,3.28
2022-09-25T13:29:28.096Z,3.78
2022-09-25T13:32:23.296Z,4.30
2022-09-25T13:35:03.442Z,4.00
2022-09-25T13:37:38.044Z,4.57
2022-09-25T13:40:46.192Z,4.13
2022-09-25T13:43:30.524Z,6.20
2022-09-25T13:46:25.039Z,5.15
2022-09-25T13:48:55.481Z,5.45
2022-09-25T13:51:22.984Z,5.90
2022-09-25T13:54:25.783Z,5.40
2022-09-25T13:56:55.066Z,6.82
2022-09-25T13:59:37.037Z,5.90
2022-09-25T14:02:37.183Z,6.60
2022-09-25T14:05:05.927Z,8.40
2022-09-25T14:07:34.983Z,8.38
2022-09-25T14:10:03.294Z,8.55
2022-09-25T14:12:42.971Z,8.07
2022-09-25T14:15:22.682Z,8.60
2022-09-25T14:17:54.679Z,11.07
2022-09-25T14:20:38.540Z,9.15
2022-09-25T14:23:27.285Z,8.18
2022-09-25T14:26:08.766Z,9.45
2022-09-25T14:28:45.852Z,10.73
2022-09-25T14:31:34.938Z,10.80
2022-09-25T14:34:39.589Z,10.77
2022-09-25T14:38:12.496Z,11.30
2022-09-25T14:41:05.027Z,11.70
2022-09-25T14:43:41.834Z,162.77
2022-09-25T14:46:18.789Z,98.07
2022-09-25T14:49:08.125Z,50.90
2022-09-25T14:51:41.633Z,29.50
2022-09-25T14:54:17.308Z,13.82
2022-09-25T14:56:50.353Z,15.63
2022-09-25T14:59:37.721Z,11.77
2022-09-25T15:02:12.067Z,11.10
2022-09-25T15:04:39.877Z,11.20
2022-09-25T15:07:23.242Z,11.68
2022-09-25T15:09:55.561Z,11.65
2022-09-25T15:12:31.468Z,19.27
2022-09-25T15:15:13.437Z,16.92
2022-09-25T15:17:54.743Z,11.65
2022-09-25T15:20:26.763Z,10.38
2022-09-25T15:23:16.242Z,10.60
2022-09-25T15:25:55.211Z,11.43
2022-09-25T15:28:26.295Z,11.57
2022-09-25T15:31:06.715Z,11.90
2022-09-25T15:33:37.796Z,14.48
2022-09-25T15:36:23.096Z,20.58
2022-09-25T15:39:02.426Z,13.77
2022-09-25T15:41:30.374Z,14.45
2022-09-25T15:44:18.391Z,15.52
2022-09-25T15:46:59.076Z,15.93
2022-09-25T15:49:55.953Z,15.73
2022-09-25T15:52:32.519Z,15.38
2022-09-25T15:55:22.517Z,17.63
2022-09-25T15:57:53.286Z,17.92
2022-09-25T16:00:44.763Z,17.33
2022-09-25T16:03:42.893Z,16.67
2022-09-25T16:06:17.484Z,16.10
2022-09-25T16:08:45.692Z,17.92
2022-09-25T16:11:23.636Z,21.48
2022-09-25T16:14:12.379Z,19.83
2022-09-25T16:16:49.431Z,19.08
2022-09-25T16:19:27.075Z,20.55
2022-09-25T16:21:55.309Z,20.20
2022-09-25T16:24:31.567Z,19.03
2022-09-25T16:27:02.849Z,17.35
2022-09-25T16:29:39.206Z,18.63
2022-09-25T16:32:21.058Z,17.08
2022-09-25T16:35:01.232Z,14.30
2022-09-25T16:37:35.687Z,13.73
2022-09-25T16:40:38.780Z,14.40
2022-09-25T16:43:25.942Z,13.90
2022-09-25T16:46:03.098Z,12.93
2022-09-25T16:48:39.488Z,12.63
2022-09-25T16:51:32.332Z,12.63
2022-09-25T16:54:00.571Z,12.43
2022-09-25T16:56:31.620Z,13.83
2022-09-25T16:58:59.843Z,9.88
2022-09-25T17:01:28.803Z,12.18
2022-09-25T17:06:30.649Z,6.13
2022-09-25T17:08:59.970Z,4.47
2022-09-25T17:11:27.656Z,4.25
2022-09-25T17:13:56.129Z,4.55
2022-09-25T17:16:23.972Z,6.03
2022-09-25T17:18:51.608Z,4.90
2022-09-25T17:21:20.173Z,6.05
2022-09-25T17:23:47.979Z,5.60
2022-09-25T17:26:21.190Z,5.05
2022-09-25T17:28:52.123Z,3.75
2022-09-25T17:31:22.221Z,4.30
2022-09-25T17:33:50.599Z,7.00
2022-09-25T17:36:18.363Z,5.30
2022-09-25T17:38:46.026Z,5.57
2022-09-25T17:41:35.213Z,7.95
2022-09-25T17:44:04.311Z,8.95
2022-09-25T17:49:04.524Z,8.60
2022-09-25T17:51:32.297Z,7.90
2022-09-25T17:54:02.721Z,9.98
2022-09-25T17:56:30.269Z,9.65
2022-09-25T17:58:58.181Z,8.82
2022-09-25T18:01:38.378Z,8.57
2022-09-25T18:04:25.303Z,7.70
2022-09-25T18:06:53.578Z,7.00
2022-09-25T18:09:21.438Z,5.80
2022-09-25T18:11:48.985Z,5.65
2022-09-25T18:14:17.391Z,6.72
2022-09-25T18:16:45.409Z,4.35
2022-09-25T18:19:37.727Z,5.18
2022-09-25T18:22:18.910Z,6.03
2022-09-25T18:24:57.397Z,4.60
2022-09-25T18:27:32.821Z,1.63
2022-09-25T18:30:00.685Z,1.80
2022-09-25T18:32:29.365Z,1.88
2022-09-25T18:34:57.184Z,3.07
2022-09-25T18:37:24.817Z,3.08
2022-09-25T18:39:52.790Z,2.65
2022-09-25T18:42:20.454Z,3.10
2022-09-25T18:44:48.771Z,3.60
2022-09-25T18:47:16.751Z,3.63
2022-09-25T18:49:44.381Z,5.20
2022-09-25T18:52:11.998Z,6.85
2022-09-25T18:54:42.241Z,4.20
2022-09-25T18:57:12.077Z,4.15
2022-09-25T18:59:40.962Z,4.72
2022-09-25T19:02:21.490Z,4.80
2022-09-25T19:04:51.194Z,4.95
2022-09-25T19:07:19.764Z,5.25
2022-09-25T19:09:47.328Z,5.28
2022-09-25T19:12:17.106Z,6.00
2022-09-25T19:14:46.074Z,6.45
2022-09-25T19:19:46.034Z,5.28
2022-09-25T19:22:19.805Z,5.82
2022-09-25T19:24:48.818Z,5.35
2022-09-25T19:27:18.662Z,5.45
2022-09-25T19:29:46.990Z,6.10
2022-09-25T19:32:17.440Z,5.82
2022-09-25T19:34:45.631Z,6.03
2022-09-25T19:37:15.306Z,5.82
2022-09-25T19:40:04.773Z,6.57
2022-09-25T19:42:33.836Z,6.70
2022-09-25T19:45:01.878Z,6.97
2022-09-25T19:47:29.625Z,7.57
2022-09-25T19:49:57.541Z,8.23
2022-09-25T19:52:25.417Z,7.75
2022-09-25T19:54:52.913Z,7.13
2022-09-25T19:57:20.501Z,6.60
2022-09-25T19:59:49.335Z,6.53
2022-09-25T20:02:17.127Z,6.93
2022-09-25T20:04:45.052Z,5.40
2022-09-25T20:07:16.602Z,4.95
2022-09-25T20:09:44.709Z,4.90
2022-09-25T20:12:12.520Z,4.63
2022-09-25T20:14:40.700Z,5.15
2022-09-25T20:17:10.011Z,4.90
2022-09-25T20:19:38.396Z,4.85
2022-09-25T20:22:06.224Z,4.90
2022-09-25T20:24:33.839Z,5.55
2022-09-25T20:27:01.822Z,5.00
2022-09-25T20:29:29.818Z,6.32
2022-09-25T20:31:57.415Z,6.82
2022-09-25T20:34:25.200Z,6.65
2022-09-25T20:36:52.821Z,6.70
2022-09-25T20:39:21.684Z,7.93
2022-09-25T20:44:19.777Z,7.18
2022-09-25T20:46:48.881Z,6.57
2022-09-25T20:49:20.050Z,6.10
2022-09-25T20:51:47.649Z,5.60
2022-09-25T20:54:15.901Z,5.47
2022-09-25T20:56:44.858Z,6.22
2022-09-25T20:59:12.716Z,5.05
2022-09-25T21:01:41.892Z,5.07
2022-09-25T21:04:10.741Z,6.13
2022-09-25T21:06:41.418Z,5.50
2022-09-25T21:09:24.041Z,6.22
2022-09-25T21:11:55.478Z,5.45
2022-09-25T21:14:28.026Z,5.68
2022-09-25T21:16:56.440Z,5.18
2022-09-25T21:19:24.562Z,5.68
2022-09-25T21:21:52.235Z,6.40
2022-09-25T21:24:21.929Z,6.07
2022-09-25T21:26:50.727Z,5.70
2022-09-25T21:29:19.412Z,4.82
2022-09-25T21:31:50.410Z,5.63
2022-09-25T21:34:19.989Z,5.88
2022-09-25T21:36:48.358Z,6.35
2022-09-25T21:39:16.483Z,5.47
2022-09-25T21:41:45.031Z,5.55
2022-09-25T21:44:16.198Z,5.63
2022-09-25T21:46:44.190Z,5.90
2022-09-25T21:49:18.828Z,5.25
2022-09-25T21:51:48.303Z,6.45
2022-09-25T21:54:17.137Z,6.18
2022-09-25T21:56:45.683Z,5.53
2022-09-25T21:59:13.486Z,5.40
2022-09-25T22:01:42.548Z,5.57
2022-09-25T22:04:14.222Z,5.95
2022-09-25T22:06:46.214Z,5.32
2022-09-25T22:09:24.255Z,6.03
2022-09-25T22:11:52.328Z,4.93
2022-09-25T22:14:21.855Z,5.00
2022-09-25T22:19:24.789Z,4.78
2022-09-25T22:21:55.423Z,4.72
2022-09-25T22:24:23.196Z,6.00
2022-09-25T22:26:52.632Z,4.82
2022-09-25T22:29:21.380Z,5.93
2022-09-25T22:31:49.309Z,6.10
2022-09-25T22:34:22.575Z,6.15
2022-09-25T22:36:56.248Z,6.07
2022-09-25T22:39:26.604Z,6.53
2022-09-25T22:41:55.746Z,6.15
2022-09-25T22:44:23.826Z,6.05
2022-09-25T22:46:51.838Z,5.57
2022-09-25T22:49:19.767Z,5.60
2022-09-25T22:51:47.217Z,6.78
2022-09-25T22:54:15.425Z,6.30
2022-09-25T22:56:44.046Z,6.30
2022-09-25T22:59:18.512Z,5.25
2022-09-25T23:01:53.673Z,5.88
2022-09-25T23:04:24.404Z,4.63
2022-09-25T23:06:53.135Z,4.82
2022-09-25T23:09:25.913Z,4.50
2022-09-25T23:11:56.307Z,5.78
2022-09-25T23:14:28.460Z,5.72
2022-09-25T23:16:57.289Z,5.15
2022-09-25T23:19:25.429Z,5.05
2022-09-25T23:21:54.343Z,6.40
2022-09-25T23:26:51.387Z,3.60
2022-09-25T23:29:20.958Z,4.13
2022-09-25T23:31:50.217Z,3.33
2022-09-25T23:34:18.932Z,3.00
2022-09-25T23:36:46.825Z,2.83
2022-09-25T23:39:20.156Z,2.88
2022-09-25T23:41:48.633Z,2.92
2022-09-25T23:44:16.705Z,2.05
2022-09-25T23:46:44.530Z,2.80
2022-09-25T23:49:13.557Z,1.90
2022-09-25T23:51:41.729Z,1.35
2022-09-25T23:54:10.769Z,2.28
2022-09-25T23:56:40.780Z,1.90
2022-09-25T23:59:11.910Z,1.90
